Terminal Aerodrome Forecast
Issued by NWS

Home | Current Version | Previous Version | Text Only | Print | Product List | Glossary On
Versions: 1 2 3 4 5 6 7 8 9 10 11 12 13 14 15 16 17 18 19 20 21 22
000
FTUS43 KDLH 282343
TAFBRD
TAF
KBRD 282343Z 2900/2924 32007KT P6SM VCTS SCT050CB BKN090
     FM290300 30007KT P6SM VCSH SCT040 BKN080
     FM290600 29008KT P6SM OVC015
     FM291100 29011KT 6SM -SHRA BR OVC008
     FM291600 30012G20KT P6SM VCSH OVC012
     FM292000 30014G22KT P6SM BKN025=

USA.gov is the U.S. government's official web portal to all federal, state and local government web resources and services.